sensor_id;sensor_type;location;lat;lon;timestamp;temperature;humidity
44894;DHT22;30625;52.206;21.030;2023-04-01T00:01:07;11.60;99.90
44894;DHT22;30625;52.206;21.030;2023-04-01T00:03:36;11.60;99.90
44894;DHT22;30625;52.206;21.030;2023-04-01T00:06:02;10.20;99.90
44894;DHT22;30625;52.206;21.030;2023-04-01T00:08:31;10.10;99.90
44894;DHT22;30625;52.206;21.030;2023-04-01T00:10:57;10.10;99.90
44894;DHT22;30625;52.206;21.030;2023-04-01T00:13:26;10.90;99.90
44894;DHT22;30625;52.206;21.030;2023-04-01T00:15:53;10.10;99.90
44894;DHT22;30625;52.206;21.030;2023-04-01T00:18:19;11.30;99.90
44894;DHT22;30625;52.206;21.030;2023-04-01T00:20:49;8.80;99.90
44894;DHT22;30625;52.206;21.030;2023-04-01T00:23:16;10.10;99.90
44894;DHT22;30625;52.206;21.030;2023-04-01T00:25:42;10.20;99.90
44894;DHT22;30625;52.206;21.030;2023-04-01T00:28:08;10.10;99.90
44894;DHT22;30625;52.206;21.030;2023-04-01T00:30:36;10.10;99.90
44894;DHT22;30625;52.206;21.030;2023-04-01T00:33:02;10.10;99.90
44894;DHT22;30625;52.206;21.030;2023-04-01T00:35:31;11.30;99.90
44894;DHT22;30625;52.206;21.030;2023-04-01T00:37:58;10.10;99.90
44894;DHT22;30625;52.206;21.030;2023-04-01T00:40:36;8.80;99.90
44894;DHT22;30625;52.206;21.030;2023-04-01T00:43:03;11.00;99.90
44894;DHT22;30625;52.206;21.030;2023-04-01T00:45:35;11.80;99.90
44894;DHT22;30625;52.206;21.030;2023-04-01T00:48:27;10.10;99.90
44894;DHT22;30625;52.206;21.030;2023-04-01T00:50:54;10.00;99.90
44894;DHT22;30625;52.206;21.030;2023-04-01T00:53:21;10.10;99.90
44894;DHT22;30625;52.206;21.030;2023-04-01T00:55:56;10.10;99.90
44894;DHT22;30625;52.206;21.030;2023-04-01T00:58:25;11.20;99.90
44894;DHT22;30625;52.206;21.030;2023-04-01T01:00:53;10.10;99.90
44894;DHT22;30625;52.206;21.030;2023-04-01T01:03:20;10.00;99.90
44894;DHT22;30625;52.206;21.030;2023-04-01T01:05:53;10.00;99.90
44894;DHT22;30625;52.206;21.030;2023-04-01T01:11:33;9.90;99.90
44894;DHT22;30625;52.206;21.030;2023-04-01T01:16:49;10.00;99.90
44894;DHT22;30625;52.206;21.030;2023-04-01T01:19:38;10.00;99.90
44894;DHT22;30625;52.206;21.030;2023-04-01T01:22:48;10.00;99.90
44894;DHT22;30625;52.206;21.030;2023-04-01T01:31:23;10.10;99.90
44894;DHT22;30625;52.206;21.030;2023-04-01T01:34:22;10.10;99.90
44894;DHT22;30625;52.206;21.030;2023-04-01T01:36:55;10.00;99.90
44894;DHT22;30625;52.206;21.030;2023-04-01T01:39:26;10.00;99.90
44894;DHT22;30625;52.206;21.030;2023-04-01T01:41:56;10.00;99.90
44894;DHT22;30625;52.206;21.030;2023-04-01T01:44:23;10.00;99.90
44894;DHT22;30625;52.206;21.030;2023-04-01T01:46:51;9.90;99.90
44894;DHT22;30625;52.206;21.030;2023-04-01T01:49:18;9.90;99.90
44894;DHT22;30625;52.206;21.030;2023-04-01T01:51:44;9.90;99.90
44894;DHT22;30625;52.206;21.030;2023-04-01T01:54:15;9.90;99.90
44894;DHT22;30625;52.206;21.030;2023-04-01T01:56:44;9.90;99.90
44894;DHT22;30625;52.206;21.030;2023-04-01T01:59:12;9.90;99.90
44894;DHT22;30625;52.206;21.030;2023-04-01T02:01:42;10.90;99.90
44894;DHT22;30625;52.206;21.030;2023-04-01T02:04:10;9.80;99.90
44894;DHT22;30625;52.206;21.030;2023-04-01T02:06:39;10.30;99.90
44894;DHT22;30625;52.206;21.030;2023-04-01T02:09:08;9.90;99.90
44894;DHT22;30625;52.206;21.030;2023-04-01T02:11:48;9.90;99.90
44894;DHT22;30625;52.206;21.030;2023-04-01T02:14:58;9.90;99.90
44894;DHT22;30625;52.206;21.030;2023-04-01T02:17:29;9.90;99.90
44894;DHT22;30625;52.206;21.030;2023-04-01T02:20:15;9.80;99.90
44894;DHT22;30625;52.206;21.030;2023-04-01T02:22:50;9.80;99.90
44894;DHT22;30625;52.206;21.030;2023-04-01T02:25:28;10.40;99.90
44894;DHT22;30625;52.206;21.030;2023-04-01T02:27:56;9.90;99.90
44894;DHT22;30625;52.206;21.030;2023-04-01T02:30:23;9.80;99.90
44894;DHT22;30625;52.206;21.030;2023-04-01T02:32:51;9.90;99.90
44894;DHT22;30625;52.206;21.030;2023-04-01T02:35:17;9.90;99.90
44894;DHT22;30625;52.206;21.030;2023-04-01T02:37:44;9.80;99.90
44894;DHT22;30625;52.206;21.030;2023-04-01T02:40:14;10.90;99.90
44894;DHT22;30625;52.206;21.030;2023-04-01T02:42:40;10.60;99.90
44894;DHT22;30625;52.206;21.030;2023-04-01T02:45:06;9.80;99.90
44894;DHT22;30625;52.206;21.030;2023-04-01T02:47:32;9.80;99.90
44894;DHT22;30625;52.206;21.030;2023-04-01T02:49:57;9.80;99.90
44894;DHT22;30625;52.206;21.030;2023-04-01T02:52:28;9.80;99.90
44894;DHT22;30625;52.206;21.030;2023-04-01T02:54:54;9.80;99.90
44894;DHT22;30625;52.206;21.030;2023-04-01T02:57:20;10.30;99.90
44894;DHT22;30625;52.206;21.030;2023-04-01T02:59:46;9.70;99.90
44894;DHT22;30625;52.206;21.030;2023-04-01T03:02:12;9.70;99.90
44894;DHT22;30625;52.206;21.030;2023-04-01T03:04:37;9.70;99.90
44894;DHT22;30625;52.206;21.030;2023-04-01T03:07:03;9.70;99.90
44894;DHT22;30625;52.206;21.030;2023-04-01T03:09:29;9.60;99.90
44894;DHT22;30625;52.206;21.030;2023-04-01T03:11:55;9.50;99.90
44894;DHT22;30625;52.206;21.030;2023-04-01T03:14:21;9.50;99.90
44894;DHT22;30625;52.206;21.030;2023-04-01T03:16:46;9.50;99.90
44894;DHT22;30625;52.206;21.030;2023-04-01T03:19:12;9.60;99.90
44894;DHT22;30625;52.206;21.030;2023-04-01T03:21:38;9.60;99.90
44894;DHT22;30625;52.206;21.030;2023-04-01T03:24:04;9.50;99.90
44894;DHT22;30625;52.206;21.030;2023-04-01T03:26:30;9.50;99.90
44894;DHT22;30625;52.206;21.030;2023-04-01T03:28:55;9.60;99.90
44894;DHT22;30625;52.206;21.030;2023-04-01T03:31:22;9.70;99.90
44894;DHT22;30625;52.206;21.030;2023-04-01T03:33:47;9.70;99.90
44894;DHT22;30625;52.206;21.030;2023-04-01T03:36:13;9.70;99.90
44894;DHT22;30625;52.206;21.030;2023-04-01T03:38:40;10.60;99.90
44894;DHT22;30625;52.206;21.030;2023-04-01T03:41:06;9.60;99.90
44894;DHT22;30625;52.206;21.030;2023-04-01T03:43:32;9.60;99.90
44894;DHT22;30625;52.206;21.030;2023-04-01T03:45:58;9.60;99.90
44894;DHT22;30625;52.206;21.030;2023-04-01T03:48:25;9.60;99.90
44894;DHT22;30625;52.206;21.030;2023-04-01T03:50:54;9.60;99.90
44894;DHT22;30625;52.206;21.030;2023-04-01T03:53:23;9.50;99.90
44894;DHT22;30625;52.206;21.030;2023-04-01T03:55:50;9.50;99.90
44894;DHT22;30625;52.206;21.030;2023-04-01T03:58:19;10.60;99.90
44894;DHT22;30625;52.206;21.030;2023-04-01T04:00:45;9.60;99.90
44894;DHT22;30625;52.206;21.030;2023-04-01T04:03:10;9.60;99.90
44894;DHT22;30625;52.206;21.030;2023-04-01T04:05:36;9.50;99.90
44894;DHT22;30625;52.206;21.030;2023-04-01T04:08:03;9.70;99.90
44894;DHT22;30625;52.206;21.030;2023-04-01T04:10:28;9.60;99.90
44894;DHT22;30625;52.206;21.030;2023-04-01T04:12:54;9.60;99.90
44894;DHT22;30625;52.206;21.030;2023-04-01T04:15:20;9.60;99.90
44894;DHT22;30625;52.206;21.030;2023-04-01T04:17:47;9.60;99.90
44894;DHT22;30625;52.206;21.030;2023-04-01T04:20:12;9.60;99.90
44894;DHT22;30625;52.206;21.030;2023-04-01T04:22:39;9.60;99.90
44894;DHT22;30625;52.206;21.030;2023-04-01T04:25:05;9.60;99.90
44894;DHT22;30625;52.206;21.030;2023-04-01T04:27:30;9.60;99.90
44894;DHT22;30625;52.206;21.030;2023-04-01T04:29:56;9.60;99.90
44894;DHT22;30625;52.206;21.030;2023-04-01T04:32:22;9.50;99.90
44894;DHT22;30625;52.206;21.030;2023-04-01T04:34:47;9.60;99.90
44894;DHT22;30625;52.206;21.030;2023-04-01T04:37:14;9.80;99.90
44894;DHT22;30625;52.206;21.030;2023-04-01T04:39:40;9.70;99.90
44894;DHT22;30625;52.206;21.030;2023-04-01T04:42:06;9.50;99.90
44894;DHT22;30625;52.206;21.030;2023-04-01T04:44:31;9.60;99.90
44894;DHT22;30625;52.206;21.030;2023-04-01T04:46:57;9.60;99.90
44894;DHT22;30625;52.206;21.030;2023-04-01T04:49:23;9.60;99.90
44894;DHT22;30625;52.206;21.030;2023-04-01T04:51:48;9.60;99.90
44894;DHT22;30625;52.206;21.030;2023-04-01T04:54:15;9.60;99.90
44894;DHT22;30625;52.206;21.030;2023-04-01T04:56:40;9.70;99.90
44894;DHT22;30625;52.206;21.030;2023-04-01T04:59:06;9.70;99.90
44894;DHT22;30625;52.206;21.030;2023-04-01T05:01:32;10.50;99.90
44894;DHT22;30625;52.206;21.030;2023-04-01T05:03:58;9.60;99.90
44894;DHT22;30625;52.206;21.030;2023-04-01T05:06:24;9.60;99.90
44894;DHT22;30625;52.206;21.030;2023-04-01T05:08:51;9.60;99.90
44894;DHT22;30625;52.206;21.030;2023-04-01T05:11:18;11.00;99.90
44894;DHT22;30625;52.206;21.030;2023-04-01T05:13:45;9.50;99.90
44894;DHT22;30625;52.206;21.030;2023-04-01T05:16:16;9.60;99.90
44894;DHT22;30625;52.206;21.030;2023-04-01T05:18:42;9.70;99.90
44894;DHT22;30625;52.206;21.030;2023-04-01T05:21:10;9.70;99.90
44894;DHT22;30625;52.206;21.030;2023-04-01T05:23:36;9.70;99.90
44894;DHT22;30625;52.206;21.030;2023-04-01T05:26:13;9.70;99.90
44894;DHT22;30625;52.206;21.030;2023-04-01T05:28:39;9.70;99.90
44894;DHT22;30625;52.206;21.030;2023-04-01T05:31:06;9.70;99.90
44894;DHT22;30625;52.206;21.030;2023-04-01T05:33:32;9.70;99.90
44894;DHT22;30625;52.206;21.030;2023-04-01T05:36:09;9.60;99.90
44894;DHT22;30625;52.206;21.030;2023-04-01T05:38:35;9.60;99.90
44894;DHT22;30625;52.206;21.030;2023-04-01T05:41:02;9.70;99.90
44894;DHT22;30625;52.206;21.030;2023-04-01T05:43:28;9.60;99.90
44894;DHT22;30625;52.206;21.030;2023-04-01T05:45:55;9.70;99.90
44894;DHT22;30625;52.206;21.030;2023-04-01T05:48:21;9.80;99.90
44894;DHT22;30625;52.206;21.030;2023-04-01T05:50:49;9.80;99.90
44894;DHT22;30625;52.206;21.030;2023-04-01T05:53:15;9.80;99.90
44894;DHT22;30625;52.206;21.030;2023-04-01T05:55:40;9.70;99.90
44894;DHT22;30625;52.206;21.030;2023-04-01T05:58:06;9.70;99.90
44894;DHT22;30625;52.206;21.030;2023-04-01T06:00:32;9.80;99.90
44894;DHT22;30625;52.206;21.030;2023-04-01T06:03:00;9.80;99.90
44894;DHT22;30625;52.206;21.030;2023-04-01T06:05:34;9.90;99.90
44894;DHT22;30625;52.206;21.030;2023-04-01T06:08:10;9.90;99.90
44894;DHT22;30625;52.206;21.030;2023-04-01T06:13:46;9.90;99.90
44894;DHT22;30625;52.206;21.030;2023-04-01T06:16:22;9.90;99.90
44894;DHT22;30625;52.206;21.030;2023-04-01T06:22:06;9.90;99.90
44894;DHT22;30625;52.206;21.030;2023-04-01T06:35:43;9.90;99.90
44894;DHT22;30625;52.206;21.030;2023-04-01T06:38:13;9.90;99.90
44894;DHT22;30625;52.206;21.030;2023-04-01T06:47:04;10.10;99.90
44894;DHT22;30625;52.206;21.030;2023-04-01T06:51:56;10.00;99.90
44894;DHT22;30625;52.206;21.030;2023-04-01T06:56:58;10.00;99.90
44894;DHT22;30625;52.206;21.030;2023-04-01T06:59:34;10.10;99.90
44894;DHT22;30625;52.206;21.030;2023-04-01T07:04:51;10.20;99.90
44894;DHT22;30625;52.206;21.030;2023-04-01T07:07:38;10.50;99.90
44894;DHT22;30625;52.206;21.030;2023-04-01T07:10:34;10.10;99.90
44894;DHT22;30625;52.206;21.030;2023-04-01T07:13:01;10.10;99.90
44894;DHT22;30625;52.206;21.030;2023-04-01T07:15:28;10.10;99.90
44894;DHT22;30625;52.206;21.030;2023-04-01T07:18:02;10.30;99.90
44894;DHT22;30625;52.206;21.030;2023-04-01T07:20:38;10.30;99.90
44894;DHT22;30625;52.206;21.030;2023-04-01T07:23:07;11.40;99.90
44894;DHT22;30625;52.206;21.030;2023-04-01T07:25:39;11.00;99.90
44894;DHT22;30625;52.206;21.030;2023-04-01T07:28:13;10.30;99.90
44894;DHT22;30625;52.206;21.030;2023-04-01T07:36:39;10.10;99.90
44894;DHT22;30625;52.206;21.030;2023-04-01T07:42:52;9.90;99.90
44894;DHT22;30625;52.206;21.030;2023-04-01T07:48:45;10.00;99.90
44894;DHT22;30625;52.206;21.030;2023-04-01T07:51:36;10.00;99.90
44894;DHT22;30625;52.206;21.030;2023-04-01T07:54:19;10.00;99.90
44894;DHT22;30625;52.206;21.030;2023-04-01T07:59:45;10.20;99.90
44894;DHT22;30625;52.206;21.030;2023-04-01T08:13:25;10.50;99.90
44894;DHT22;30625;52.206;21.030;2023-04-01T08:16:03;10.60;99.90
44894;DHT22;30625;52.206;21.030;2023-04-01T08:19:09;10.70;99.90
44894;DHT22;30625;52.206;21.030;2023-04-01T08:21:47;10.60;99.90
44894;DHT22;30625;52.206;21.030;2023-04-01T08:27:00;10.50;99.90
44894;DHT22;30625;52.206;21.030;2023-04-01T08:33:05;10.60;99.90
44894;DHT22;30625;52.206;21.030;2023-04-01T08:35:56;10.60;99.90
44894;DHT22;30625;52.206;21.030;2023-04-01T08:58:51;10.40;99.90
44894;DHT22;30625;52.206;21.030;2023-04-01T09:01:56;10.40;99.90
44894;DHT22;30625;52.206;21.030;2023-04-01T09:19:11;11.10;99.90
44894;DHT22;30625;52.206;21.030;2023-04-01T09:24:33;10.80;99.90
44894;DHT22;30625;52.206;21.030;2023-04-01T09:27:25;10.60;99.90
44894;DHT22;30625;52.206;21.030;2023-04-01T09:43:27;10.30;99.90
44894;DHT22;30625;52.206;21.030;2023-04-01T09:46:10;10.40;99.90
44894;DHT22;30625;52.206;21.030;2023-04-01T09:49:06;10.20;99.90
44894;DHT22;30625;52.206;21.030;2023-04-01T10:00:06;10.00;99.90
44894;DHT22;30625;52.206;21.030;2023-04-01T10:03:02;10.10;99.90
44894;DHT22;30625;52.206;21.030;2023-04-01T10:25:14;10.30;99.90
44894;DHT22;30625;52.206;21.030;2023-04-01T10:37:01;10.10;99.90
44894;DHT22;30625;52.206;21.030;2023-04-01T10:56:42;10.60;99.90
44894;DHT22;30625;52.206;21.030;2023-04-01T11:16:05;10.50;99.90
44894;DHT22;30625;52.206;21.030;2023-04-01T11:29:49;10.60;99.90
44894;DHT22;30625;52.206;21.030;2023-04-01T11:43:19;10.90;99.90
44894;DHT22;30625;52.206;21.030;2023-04-01T11:46:15;10.90;99.90
44894;DHT22;30625;52.206;21.030;2023-04-01T11:53:55;11.20;99.90
44894;DHT22;30625;52.206;21.030;2023-04-01T11:56:34;11.20;99.90
44894;DHT22;30625;52.206;21.030;2023-04-01T11:59:33;11.30;99.90
44894;DHT22;30625;52.206;21.030;2023-04-01T12:02:11;11.40;99.90
44894;DHT22;30625;52.206;21.030;2023-04-01T12:10:38;11.10;99.90
44894;DHT22;30625;52.206;21.030;2023-04-01T12:21:49;11.20;99.90
44894;DHT22;30625;52.206;21.030;2023-04-01T12:45:06;11.10;99.90
44894;DHT22;30625;52.206;21.030;2023-04-01T12:48:01;11.50;99.90
44894;DHT22;30625;52.206;21.030;2023-04-01T13:00:12;12.50;99.90
44894;DHT22;30625;52.206;21.030;2023-04-01T13:05:24;12.70;99.90
44894;DHT22;30625;52.206;21.030;2023-04-01T13:16:23;12.50;99.90
44894;DHT22;30625;52.206;21.030;2023-04-01T13:19:16;12.40;99.90
44894;DHT22;30625;52.206;21.030;2023-04-01T13:21:48;12.20;99.90
44894;DHT22;30625;52.206;21.030;2023-04-01T13:35:25;11.80;99.90
44894;DHT22;30625;52.206;21.030;2023-04-01T13:38:12;11.60;99.90
44894;DHT22;30625;52.206;21.030;2023-04-01T13:41:17;11.40;99.90
44894;DHT22;30625;52.206;21.030;2023-04-01T13:43:52;11.30;99.90
44894;DHT22;30625;52.206;21.030;2023-04-01T13:46:27;11.20;99.90
44894;DHT22;30625;52.206;21.030;2023-04-01T13:49:21;11.40;99.90
44894;DHT22;30625;52.206;21.030;2023-04-01T14:03:28;10.60;99.90
44894;DHT22;30625;52.206;21.030;2023-04-01T14:12:09;10.60;99.90
44894;DHT22;30625;52.206;21.030;2023-04-01T14:17:24;10.80;99.90
44894;DHT22;30625;52.206;21.030;2023-04-01T14:26:03;11.00;99.90
44894;DHT22;30625;52.206;21.030;2023-04-01T14:47:53;10.60;99.90
44894;DHT22;30625;52.206;21.030;2023-04-01T14:50:21;10.60;99.90
44894;DHT22;30625;52.206;21.030;2023-04-01T14:55:52;10.50;99.90
44894;DHT22;30625;52.206;21.030;2023-04-01T14:58:21;10.60;99.90
44894;DHT22;30625;52.206;21.030;2023-04-01T15:03:54;10.20;99.90
44894;DHT22;30625;52.206;21.030;2023-04-01T15:09:26;10.30;99.90
44894;DHT22;30625;52.206;21.030;2023-04-01T15:14:43;10.10;99.90
44894;DHT22;30625;52.206;21.030;2023-04-01T15:19:57;10.00;99.90
44894;DHT22;30625;52.206;21.030;2023-04-01T15:28:49;10.10;99.90
44894;DHT22;30625;52.206;21.030;2023-04-01T15:31:38;10.00;99.90
44894;DHT22;30625;52.206;21.030;2023-04-01T15:34:24;10.00;99.90
44894;DHT22;30625;52.206;21.030;2023-04-01T15:37:07;10.00;99.90
44894;DHT22;30625;52.206;21.030;2023-04-01T15:39:46;10.00;99.90
44894;DHT22;30625;52.206;21.030;2023-04-01T15:55:48;10.00;99.90
44894;DHT22;30625;52.206;21.030;2023-04-01T16:01:18;9.90;99.90
44894;DHT22;30625;52.206;21.030;2023-04-01T16:04:03;9.90;99.90
44894;DHT22;30625;52.206;21.030;2023-04-01T16:09:27;9.80;99.90
44894;DHT22;30625;52.206;21.030;2023-04-01T16:12:13;9.80;99.90
44894;DHT22;30625;52.206;21.030;2023-04-01T16:26:36;9.80;99.90
44894;DHT22;30625;52.206;21.030;2023-04-01T16:31:43;9.80;99.90
44894;DHT22;30625;52.206;21.030;2023-04-01T16:36:51;9.80;99.90
44894;DHT22;30625;52.206;21.030;2023-04-01T16:42:53;9.80;99.90
44894;DHT22;30625;52.206;21.030;2023-04-01T16:45:34;9.80;99.90
44894;DHT22;30625;52.206;21.030;2023-04-01T16:48:21;9.60;99.90
44894;DHT22;30625;52.206;21.030;2023-04-01T16:51:03;10.60;99.90
44894;DHT22;30625;52.206;21.030;2023-04-01T16:53:52;9.60;99.90
44894;DHT22;30625;52.206;21.030;2023-04-01T16:56:27;9.60;99.90
44894;DHT22;30625;52.206;21.030;2023-04-01T17:01:57;9.50;99.90
44894;DHT22;30625;52.206;21.030;2023-04-01T17:04:44;9.60;99.90
44894;DHT22;30625;52.206;21.030;2023-04-01T17:15:59;9.40;99.90
44894;DHT22;30625;52.206;21.030;2023-04-01T17:27:29;9.40;99.90
44894;DHT22;30625;52.206;21.030;2023-04-01T17:30:14;9.40;99.90
44894;DHT22;30625;52.206;21.030;2023-04-01T17:35:22;9.40;99.90
44894;DHT22;30625;52.206;21.030;2023-04-01T17:43:30;10.60;99.90
44894;DHT22;30625;52.206;21.030;2023-04-01T17:51:40;9.30;99.90
44894;DHT22;30625;52.206;21.030;2023-04-01T17:54:34;9.40;99.90
44894;DHT22;30625;52.206;21.030;2023-04-01T18:00:26;9.40;99.90
44894;DHT22;30625;52.206;21.030;2023-04-01T18:06:21;9.40;99.90
44894;DHT22;30625;52.206;21.030;2023-04-01T18:09:09;9.40;99.90
44894;DHT22;30625;52.206;21.030;2023-04-01T18:14:57;9.30;99.90
44894;DHT22;30625;52.206;21.030;2023-04-01T18:20:37;8.10;99.90
44894;DHT22;30625;52.206;21.030;2023-04-01T18:25:49;9.30;99.90
44894;DHT22;30625;52.206;21.030;2023-04-01T18:28:39;9.10;99.90
44894;DHT22;30625;52.206;21.030;2023-04-01T18:31:16;9.10;99.90
44894;DHT22;30625;52.206;21.030;2023-04-01T18:39:58;9.00;99.90
44894;DHT22;30625;52.206;21.030;2023-04-01T18:45:03;8.90;99.90
44894;DHT22;30625;52.206;21.030;2023-04-01T18:47:47;8.80;99.90
44894;DHT22;30625;52.206;21.030;2023-04-01T18:53:26;8.90;99.90
44894;DHT22;30625;52.206;21.030;2023-04-01T18:56:02;8.80;99.90
44894;DHT22;30625;52.206;21.030;2023-04-01T18:58:48;9.10;99.90
44894;DHT22;30625;52.206;21.030;2023-04-01T19:06:48;9.20;99.90
44894;DHT22;30625;52.206;21.030;2023-04-01T19:09:32;8.80;99.90
44894;DHT22;30625;52.206;21.030;2023-04-01T19:14:55;8.80;99.90
44894;DHT22;30625;52.206;21.030;2023-04-01T19:23:12;8.80;99.90
44894;DHT22;30625;52.206;21.030;2023-04-01T19:25:48;8.80;99.90
44894;DHT22;30625;52.206;21.030;2023-04-01T19:31:53;8.80;99.90
44894;DHT22;30625;52.206;21.030;2023-04-01T19:48:57;8.70;99.90
44894;DHT22;30625;52.206;21.030;2023-04-01T19:55:00;8.70;99.90
44894;DHT22;30625;52.206;21.030;2023-04-01T20:05:34;8.60;99.90
44894;DHT22;30625;52.206;21.030;2023-04-01T20:08:11;8.60;99.90
44894;DHT22;30625;52.206;21.030;2023-04-01T20:10:53;8.60;99.90
44894;DHT22;30625;52.206;21.030;2023-04-01T20:16:05;8.60;99.90
44894;DHT22;30625;52.206;21.030;2023-04-01T20:18:45;8.60;99.90
44894;DHT22;30625;52.206;21.030;2023-04-01T20:21:30;8.50;99.90
44894;DHT22;30625;52.206;21.030;2023-04-01T20:26:36;8.60;99.90
44894;DHT22;30625;52.206;21.030;2023-04-01T20:29:24;8.50;99.90
44894;DHT22;30625;52.206;21.030;2023-04-01T20:37:21;8.40;99.90
44894;DHT22;30625;52.206;21.030;2023-04-01T20:40:18;8.40;99.90
44894;DHT22;30625;52.206;21.030;2023-04-01T20:43:23;8.40;99.90
44894;DHT22;30625;52.206;21.030;2023-04-01T20:49:14;8.40;99.90
44894;DHT22;30625;52.206;21.030;2023-04-01T20:51:26;8.40;99.90
44894;DHT22;30625;52.206;21.030;2023-04-01T20:56:51;8.30;99.90
44894;DHT22;30625;52.206;21.030;2023-04-01T21:05:36;8.30;99.90
44894;DHT22;30625;52.206;21.030;2023-04-01T21:08:31;8.30;99.90
44894;DHT22;30625;52.206;21.030;2023-04-01T21:14:28;8.40;99.90
44894;DHT22;30625;52.206;21.030;2023-04-01T21:28:23;8.10;99.90
44894;DHT22;30625;52.206;21.030;2023-04-01T21:31:13;8.10;99.90
44894;DHT22;30625;52.206;21.030;2023-04-01T21:33:59;8.20;99.90
44894;DHT22;30625;52.206;21.030;2023-04-01T21:39:57;7.30;99.90
44894;DHT22;30625;52.206;21.030;2023-04-01T21:42:59;8.20;99.90
44894;DHT22;30625;52.206;21.030;2023-04-01T21:50:57;8.20;99.90
44894;DHT22;30625;52.206;21.030;2023-04-01T21:57:02;8.20;99.90
44894;DHT22;30625;52.206;21.030;2023-04-01T22:02:41;8.20;99.90
44894;DHT22;30625;52.206;21.030;2023-04-01T22:13:44;8.10;99.90
44894;DHT22;30625;52.206;21.030;2023-04-01T22:19:12;8.10;99.90
44894;DHT22;30625;52.206;21.030;2023-04-01T22:21:45;8.10;99.90
44894;DHT22;30625;52.206;21.030;2023-04-01T22:32:47;8.00;99.90
44894;DHT22;30625;52.206;21.030;2023-04-01T22:35:36;8.00;99.90
44894;DHT22;30625;52.206;21.030;2023-04-01T22:38:12;7.90;99.90
44894;DHT22;30625;52.206;21.030;2023-04-01T22:40:56;7.90;99.90
44894;DHT22;30625;52.206;21.030;2023-04-01T22:49:04;7.90;99.90
44894;DHT22;30625;52.206;21.030;2023-04-01T22:51:52;7.80;99.90
44894;DHT22;30625;52.206;21.030;2023-04-01T22:54:39;7.90;99.90
44894;DHT22;30625;52.206;21.030;2023-04-01T23:00:26;7.70;99.90
44894;DHT22;30625;52.206;21.030;2023-04-01T23:05:28;7.70;99.90
44894;DHT22;30625;52.206;21.030;2023-04-01T23:08:36;8.10;99.90
44894;DHT22;30625;52.206;21.030;2023-04-01T23:10:58;7.80;99.90
44894;DHT22;30625;52.206;21.030;2023-04-01T23:13:41;7.80;99.90
44894;DHT22;30625;52.206;21.030;2023-04-01T23:16:09;7.80;99.90
44894;DHT22;30625;52.206;21.030;2023-04-01T23:18:45;7.70;99.90
44894;DHT22;30625;52.206;21.030;2023-04-01T23:23:58;7.60;99.90
44894;DHT22;30625;52.206;21.030;2023-04-01T23:26:39;7.90;99.90
44894;DHT22;30625;52.206;21.030;2023-04-01T23:29:16;7.70;99.90
44894;DHT22;30625;52.206;21.030;2023-04-01T23:32:04;8.90;99.90
44894;DHT22;30625;52.206;21.030;2023-04-01T23:34:34;7.60;99.90
44894;DHT22;30625;52.206;21.030;2023-04-01T23:37:04;7.50;99.90
44894;DHT22;30625;52.206;21.030;2023-04-01T23:42:40;7.50;99.90
44894;DHT22;30625;52.206;21.030;2023-04-01T23:45:13;7.50;99.90
44894;DHT22;30625;52.206;21.030;2023-04-01T23:47:43;7.60;99.90
44894;DHT22;30625;52.206;21.030;2023-04-01T23:50:12;7.50;99.90
44894;DHT22;30625;52.206;21.030;2023-04-01T23:53:13;7.60;99.90
44894;DHT22;30625;52.206;21.030;2023-04-01T23:55:41;7.60;99.90
